sensor_id;sensor_type;location;lat;lon;timestamp;P1;durP1;ratioP1;P2;durP2;ratioP2
1799;SDS011;919;48.274;12.292;2022-12-07T00:00:50;8.07;;;6.37;;
1799;SDS011;919;48.274;12.292;2022-12-07T00:03:17;7.53;;;6.00;;
1799;SDS011;919;48.274;12.292;2022-12-07T00:05:44;7.63;;;5.93;;
1799;SDS011;919;48.274;12.292;2022-12-07T00:08:12;10.00;;;6.50;;
1799;SDS011;919;48.274;12.292;2022-12-07T00:10:38;7.40;;;5.90;;
1799;SDS011;919;48.274;12.292;2022-12-07T00:13:05;9.10;;;6.10;;
1799;SDS011;919;48.274;12.292;2022-12-07T00:15:33;7.63;;;6.57;;
1799;SDS011;919;48.274;12.292;2022-12-07T00:18:00;8.57;;;6.80;;
1799;SDS011;919;48.274;12.292;2022-12-07T00:20:27;9.13;;;6.00;;
1799;SDS011;919;48.274;12.292;2022-12-07T00:22:55;6.90;;;5.90;;
1799;SDS011;919;48.274;12.292;2022-12-07T00:25:23;9.20;;;6.37;;
1799;SDS011;919;48.274;12.292;2022-12-07T00:27:50;8.43;;;6.43;;
1799;SDS011;919;48.274;12.292;2022-12-07T00:30:18;9.90;;;7.10;;
1799;SDS011;919;48.274;12.292;2022-12-07T00:32:45;7.33;;;6.13;;
1799;SDS011;919;48.274;12.292;2022-12-07T00:35:12;9.10;;;6.87;;
1799;SDS011;919;48.274;12.292;2022-12-07T00:37:39;7.60;;;6.10;;
1799;SDS011;919;48.274;12.292;2022-12-07T00:40:06;10.37;;;7.17;;
1799;SDS011;919;48.274;12.292;2022-12-07T00:42:35;10.20;;;6.57;;
1799;SDS011;919;48.274;12.292;2022-12-07T00:45:02;8.17;;;6.50;;
1799;SDS011;919;48.274;12.292;2022-12-07T00:47:29;10.03;;;6.80;;
1799;SDS011;919;48.274;12.292;2022-12-07T00:49:55;7.90;;;6.57;;
1799;SDS011;919;48.274;12.292;2022-12-07T00:52:22;7.30;;;5.60;;
1799;SDS011;919;48.274;12.292;2022-12-07T00:54:49;10.10;;;5.97;;
1799;SDS011;919;48.274;12.292;2022-12-07T00:57:15;9.37;;;6.30;;
1799;SDS011;919;48.274;12.292;2022-12-07T00:59:44;11.87;;;6.50;;
1799;SDS011;919;48.274;12.292;2022-12-07T01:02:10;7.83;;;6.40;;
1799;SDS011;919;48.274;12.292;2022-12-07T01:04:37;9.60;;;7.00;;
1799;SDS011;919;48.274;12.292;2022-12-07T01:07:04;10.60;;;6.30;;
1799;SDS011;919;48.274;12.292;2022-12-07T01:09:31;9.03;;;6.40;;
1799;SDS011;919;48.274;12.292;2022-12-07T01:11:57;11.30;;;6.33;;
1799;SDS011;919;48.274;12.292;2022-12-07T01:14:24;7.30;;;5.93;;
1799;SDS011;919;48.274;12.292;2022-12-07T01:16:52;8.60;;;6.30;;
1799;SDS011;919;48.274;12.292;2022-12-07T01:19:19;8.17;;;6.17;;
1799;SDS011;919;48.274;12.292;2022-12-07T01:21:45;8.03;;;6.20;;
1799;SDS011;919;48.274;12.292;2022-12-07T01:24:12;9.67;;;7.27;;
1799;SDS011;919;48.274;12.292;2022-12-07T01:26:39;8.47;;;6.00;;
1799;SDS011;919;48.274;12.292;2022-12-07T01:29:06;8.80;;;6.40;;
1799;SDS011;919;48.274;12.292;2022-12-07T01:31:33;9.70;;;7.10;;
1799;SDS011;919;48.274;12.292;2022-12-07T01:34:01;7.23;;;5.93;;
1799;SDS011;919;48.274;12.292;2022-12-07T01:36:29;7.10;;;5.80;;
1799;SDS011;919;48.274;12.292;2022-12-07T01:38:58;10.80;;;6.23;;
1799;SDS011;919;48.274;12.292;2022-12-07T01:41:27;8.30;;;5.90;;
1799;SDS011;919;48.274;12.292;2022-12-07T01:44:08;7.30;;;5.30;;
1799;SDS011;919;48.274;12.292;2022-12-07T01:46:38;8.90;;;6.73;;
1799;SDS011;919;48.274;12.292;2022-12-07T01:49:08;7.00;;;5.50;;
1799;SDS011;919;48.274;12.292;2022-12-07T01:51:40;7.97;;;5.60;;
1799;SDS011;919;48.274;12.292;2022-12-07T01:54:09;7.30;;;5.77;;
1799;SDS011;919;48.274;12.292;2022-12-07T01:56:37;8.63;;;5.43;;
1799;SDS011;919;48.274;12.292;2022-12-07T01:59:06;6.40;;;5.23;;
1799;SDS011;919;48.274;12.292;2022-12-07T02:01:33;7.03;;;5.77;;
1799;SDS011;919;48.274;12.292;2022-12-07T02:04:00;10.73;;;6.97;;
1799;SDS011;919;48.274;12.292;2022-12-07T02:06:29;10.03;;;6.70;;
1799;SDS011;919;48.274;12.292;2022-12-07T02:08:56;6.33;;;5.20;;
1799;SDS011;919;48.274;12.292;2022-12-07T02:11:23;8.07;;;6.13;;
1799;SDS011;919;48.274;12.292;2022-12-07T02:13:50;6.93;;;5.63;;
1799;SDS011;919;48.274;12.292;2022-12-07T02:16:21;9.00;;;5.87;;
1799;SDS011;919;48.274;12.292;2022-12-07T02:18:56;8.40;;;6.43;;
1799;SDS011;919;48.274;12.292;2022-12-07T02:21:38;7.27;;;5.80;;
1799;SDS011;919;48.274;12.292;2022-12-07T02:24:18;8.23;;;5.90;;
1799;SDS011;919;48.274;12.292;2022-12-07T02:27:02;10.10;;;6.63;;
1799;SDS011;919;48.274;12.292;2022-12-07T02:29:43;8.80;;;5.80;;
1799;SDS011;919;48.274;12.292;2022-12-07T02:32:14;7.33;;;5.83;;
1799;SDS011;919;48.274;12.292;2022-12-07T02:37:57;9.47;;;7.33;;
1799;SDS011;919;48.274;12.292;2022-12-07T02:40:29;8.97;;;5.80;;
1799;SDS011;919;48.274;12.292;2022-12-07T02:43:02;8.43;;;6.27;;
1799;SDS011;919;48.274;12.292;2022-12-07T02:45:44;9.20;;;6.30;;
1799;SDS011;919;48.274;12.292;2022-12-07T02:48:13;7.60;;;5.73;;
1799;SDS011;919;48.274;12.292;2022-12-07T02:50:44;7.73;;;5.23;;
1799;SDS011;919;48.274;12.292;2022-12-07T02:55:57;8.90;;;6.50;;
1799;SDS011;919;48.274;12.292;2022-12-07T02:58:29;10.93;;;6.70;;
1799;SDS011;919;48.274;12.292;2022-12-07T03:01:08;8.30;;;6.30;;
1799;SDS011;919;48.274;12.292;2022-12-07T03:03:43;7.80;;;5.63;;
1799;SDS011;919;48.274;12.292;2022-12-07T03:06:20;6.50;;;5.30;;
1799;SDS011;919;48.274;12.292;2022-12-07T03:08:55;8.53;;;6.27;;
1799;SDS011;919;48.274;12.292;2022-12-07T03:11:29;8.03;;;5.90;;
1799;SDS011;919;48.274;12.292;2022-12-07T03:14:02;9.17;;;6.50;;
1799;SDS011;919;48.274;12.292;2022-12-07T03:16:43;7.77;;;5.67;;
1799;SDS011;919;48.274;12.292;2022-12-07T03:19:14;7.53;;;6.03;;
1799;SDS011;919;48.274;12.292;2022-12-07T03:21:44;8.20;;;6.00;;
1799;SDS011;919;48.274;12.292;2022-12-07T03:24:16;8.30;;;6.27;;
1799;SDS011;919;48.274;12.292;2022-12-07T03:26:46;8.60;;;5.77;;
1799;SDS011;919;48.274;12.292;2022-12-07T03:29:16;9.10;;;6.40;;
1799;SDS011;919;48.274;12.292;2022-12-07T03:31:48;8.73;;;6.20;;
1799;SDS011;919;48.274;12.292;2022-12-07T03:34:23;6.13;;;5.50;;
1799;SDS011;919;48.274;12.292;2022-12-07T03:36:56;8.90;;;6.37;;
1799;SDS011;919;48.274;12.292;2022-12-07T03:39:27;5.80;;;5.23;;
1799;SDS011;919;48.274;12.292;2022-12-07T03:41:59;8.63;;;5.63;;
1799;SDS011;919;48.274;12.292;2022-12-07T03:44:29;8.57;;;6.20;;
1799;SDS011;919;48.274;12.292;2022-12-07T03:47:00;9.50;;;6.40;;
1799;SDS011;919;48.274;12.292;2022-12-07T03:49:31;10.13;;;6.60;;
1799;SDS011;919;48.274;12.292;2022-12-07T03:52:06;6.37;;;5.57;;
1799;SDS011;919;48.274;12.292;2022-12-07T03:54:43;10.30;;;6.70;;
1799;SDS011;919;48.274;12.292;2022-12-07T03:57:14;9.23;;;5.87;;
1799;SDS011;919;48.274;12.292;2022-12-07T03:59:43;7.00;;;5.57;;
1799;SDS011;919;48.274;12.292;2022-12-07T04:02:12;6.73;;;5.17;;
1799;SDS011;919;48.274;12.292;2022-12-07T04:04:40;7.57;;;5.37;;
1799;SDS011;919;48.274;12.292;2022-12-07T04:07:08;13.60;;;5.90;;
1799;SDS011;919;48.274;12.292;2022-12-07T04:09:35;7.10;;;5.57;;
1799;SDS011;919;48.274;12.292;2022-12-07T04:12:02;7.20;;;6.07;;
1799;SDS011;919;48.274;12.292;2022-12-07T04:14:30;7.27;;;5.27;;
1799;SDS011;919;48.274;12.292;2022-12-07T04:16:57;12.17;;;7.17;;
1799;SDS011;919;48.274;12.292;2022-12-07T04:19:26;7.00;;;5.50;;
1799;SDS011;919;48.274;12.292;2022-12-07T04:21:54;6.43;;;5.30;;
1799;SDS011;919;48.274;12.292;2022-12-07T04:24:22;6.80;;;5.37;;
1799;SDS011;919;48.274;12.292;2022-12-07T04:26:49;10.47;;;5.80;;
1799;SDS011;919;48.274;12.292;2022-12-07T04:29:17;6.90;;;5.27;;
1799;SDS011;919;48.274;12.292;2022-12-07T04:31:44;9.10;;;6.23;;
1799;SDS011;919;48.274;12.292;2022-12-07T04:34:11;8.83;;;5.97;;
1799;SDS011;919;48.274;12.292;2022-12-07T04:36:40;7.90;;;5.67;;
1799;SDS011;919;48.274;12.292;2022-12-07T04:39:18;5.53;;;4.70;;
1799;SDS011;919;48.274;12.292;2022-12-07T04:41:47;7.17;;;5.03;;
1799;SDS011;919;48.274;12.292;2022-12-07T04:44:14;9.13;;;5.50;;
1799;SDS011;919;48.274;12.292;2022-12-07T04:46:42;6.93;;;5.33;;
1799;SDS011;919;48.274;12.292;2022-12-07T04:49:09;7.30;;;5.67;;
1799;SDS011;919;48.274;12.292;2022-12-07T04:51:36;7.57;;;5.60;;
1799;SDS011;919;48.274;12.292;2022-12-07T04:54:05;10.23;;;6.50;;
1799;SDS011;919;48.274;12.292;2022-12-07T04:56:32;9.70;;;6.40;;
1799;SDS011;919;48.274;12.292;2022-12-07T04:59:00;6.80;;;5.83;;
1799;SDS011;919;48.274;12.292;2022-12-07T05:01:27;9.70;;;6.30;;
1799;SDS011;919;48.274;12.292;2022-12-07T05:03:54;7.27;;;5.97;;
1799;SDS011;919;48.274;12.292;2022-12-07T05:06:21;7.50;;;5.83;;
1799;SDS011;919;48.274;12.292;2022-12-07T05:08:48;7.73;;;5.63;;
1799;SDS011;919;48.274;12.292;2022-12-07T05:11:16;8.63;;;6.10;;
1799;SDS011;919;48.274;12.292;2022-12-07T05:13:57;7.90;;;5.67;;
1799;SDS011;919;48.274;12.292;2022-12-07T05:16:24;10.10;;;7.07;;
1799;SDS011;919;48.274;12.292;2022-12-07T05:18:50;7.97;;;6.30;;
1799;SDS011;919;48.274;12.292;2022-12-07T05:21:17;8.70;;;7.30;;
1799;SDS011;919;48.274;12.292;2022-12-07T05:23:45;8.90;;;6.50;;
1799;SDS011;919;48.274;12.292;2022-12-07T05:26:11;7.67;;;6.23;;
1799;SDS011;919;48.274;12.292;2022-12-07T05:28:40;8.07;;;5.77;;
1799;SDS011;919;48.274;12.292;2022-12-07T05:31:07;10.17;;;6.57;;
1799;SDS011;919;48.274;12.292;2022-12-07T05:33:33;8.97;;;6.70;;
1799;SDS011;919;48.274;12.292;2022-12-07T05:36:00;6.90;;;5.27;;
1799;SDS011;919;48.274;12.292;2022-12-07T05:38:30;9.43;;;7.10;;
1799;SDS011;919;48.274;12.292;2022-12-07T05:40:59;6.97;;;5.83;;
1799;SDS011;919;48.274;12.292;2022-12-07T05:43:27;7.63;;;5.70;;
1799;SDS011;919;48.274;12.292;2022-12-07T05:45:55;8.37;;;5.80;;
1799;SDS011;919;48.274;12.292;2022-12-07T05:48:22;10.50;;;7.30;;
1799;SDS011;919;48.274;12.292;2022-12-07T05:50:49;6.63;;;5.50;;
1799;SDS011;919;48.274;12.292;2022-12-07T05:53:16;11.10;;;7.83;;
1799;SDS011;919;48.274;12.292;2022-12-07T05:55:44;9.30;;;6.60;;
1799;SDS011;919;48.274;12.292;2022-12-07T05:58:11;10.63;;;6.70;;
1799;SDS011;919;48.274;12.292;2022-12-07T06:00:56;8.63;;;5.87;;
1799;SDS011;919;48.274;12.292;2022-12-07T06:03:23;8.27;;;5.90;;
1799;SDS011;919;48.274;12.292;2022-12-07T06:05:51;9.67;;;6.73;;
1799;SDS011;919;48.274;12.292;2022-12-07T06:08:18;9.17;;;7.10;;
1799;SDS011;919;48.274;12.292;2022-12-07T06:10:46;12.77;;;6.80;;
1799;SDS011;919;48.274;12.292;2022-12-07T06:13:35;7.93;;;6.50;;
1799;SDS011;919;48.274;12.292;2022-12-07T06:16:03;11.60;;;7.50;;
1799;SDS011;919;48.274;12.292;2022-12-07T06:18:30;9.90;;;6.77;;
1799;SDS011;919;48.274;12.292;2022-12-07T06:20:56;9.83;;;6.30;;
1799;SDS011;919;48.274;12.292;2022-12-07T06:23:23;9.90;;;7.40;;
1799;SDS011;919;48.274;12.292;2022-12-07T06:25:50;13.83;;;8.00;;
1799;SDS011;919;48.274;12.292;2022-12-07T06:28:17;13.20;;;8.93;;
1799;SDS011;919;48.274;12.292;2022-12-07T06:30:43;8.33;;;6.43;;
1799;SDS011;919;48.274;12.292;2022-12-07T06:33:12;10.67;;;7.13;;
1799;SDS011;919;48.274;12.292;2022-12-07T06:35:38;9.17;;;6.57;;
1799;SDS011;919;48.274;12.292;2022-12-07T06:38:05;9.30;;;6.67;;
1799;SDS011;919;48.274;12.292;2022-12-07T06:40:32;8.23;;;5.70;;
1799;SDS011;919;48.274;12.292;2022-12-07T06:42:58;8.67;;;6.80;;
1799;SDS011;919;48.274;12.292;2022-12-07T06:45:25;17.50;;;8.00;;
1799;SDS011;919;48.274;12.292;2022-12-07T06:47:52;11.60;;;8.37;;
1799;SDS011;919;48.274;12.292;2022-12-07T06:50:20;11.60;;;7.90;;
1799;SDS011;919;48.274;12.292;2022-12-07T06:52:47;11.73;;;8.03;;
1799;SDS011;919;48.274;12.292;2022-12-07T06:55:14;10.00;;;7.13;;
1799;SDS011;919;48.274;12.292;2022-12-07T06:57:40;11.00;;;7.70;;
1799;SDS011;919;48.274;12.292;2022-12-07T07:00:08;12.60;;;7.50;;
1799;SDS011;919;48.274;12.292;2022-12-07T07:02:35;10.93;;;7.10;;
1799;SDS011;919;48.274;12.292;2022-12-07T07:05:02;12.77;;;7.67;;
1799;SDS011;919;48.274;12.292;2022-12-07T07:07:31;12.80;;;8.10;;
1799;SDS011;919;48.274;12.292;2022-12-07T07:09:57;11.10;;;7.63;;
1799;SDS011;919;48.274;12.292;2022-12-07T07:12:24;11.50;;;6.57;;
1799;SDS011;919;48.274;12.292;2022-12-07T07:14:51;10.50;;;7.60;;
1799;SDS011;919;48.274;12.292;2022-12-07T07:17:18;11.63;;;8.27;;
1799;SDS011;919;48.274;12.292;2022-12-07T07:19:44;11.43;;;8.00;;
1799;SDS011;919;48.274;12.292;2022-12-07T07:22:11;11.43;;;7.90;;
1799;SDS011;919;48.274;12.292;2022-12-07T07:24:39;12.87;;;7.67;;
1799;SDS011;919;48.274;12.292;2022-12-07T07:27:06;12.23;;;8.53;;
1799;SDS011;919;48.274;12.292;2022-12-07T07:29:33;11.47;;;8.30;;
1799;SDS011;919;48.274;12.292;2022-12-07T07:32:00;12.97;;;9.00;;
1799;SDS011;919;48.274;12.292;2022-12-07T07:34:27;14.83;;;8.90;;
1799;SDS011;919;48.274;12.292;2022-12-07T07:36:53;10.97;;;8.47;;
1799;SDS011;919;48.274;12.292;2022-12-07T07:39:20;14.20;;;9.00;;
1799;SDS011;919;48.274;12.292;2022-12-07T07:41:48;13.53;;;8.73;;
1799;SDS011;919;48.274;12.292;2022-12-07T07:44:15;15.17;;;9.73;;
1799;SDS011;919;48.274;12.292;2022-12-07T07:46:42;11.80;;;8.30;;
1799;SDS011;919;48.274;12.292;2022-12-07T07:49:08;11.60;;;8.00;;
1799;SDS011;919;48.274;12.292;2022-12-07T07:51:36;12.20;;;9.07;;
1799;SDS011;919;48.274;12.292;2022-12-07T07:54:02;15.87;;;10.77;;
1799;SDS011;919;48.274;12.292;2022-12-07T07:56:30;15.57;;;9.13;;
1799;SDS011;919;48.274;12.292;2022-12-07T07:58:58;10.57;;;7.60;;
1799;SDS011;919;48.274;12.292;2022-12-07T08:01:25;11.33;;;7.43;;
1799;SDS011;919;48.274;12.292;2022-12-07T08:03:52;14.93;;;8.03;;
1799;SDS011;919;48.274;12.292;2022-12-07T08:06:18;10.17;;;7.30;;
1799;SDS011;919;48.274;12.292;2022-12-07T08:08:45;11.40;;;8.97;;
1799;SDS011;919;48.274;12.292;2022-12-07T08:11:12;15.83;;;9.90;;
1799;SDS011;919;48.274;12.292;2022-12-07T08:13:39;17.63;;;10.73;;
1799;SDS011;919;48.274;12.292;2022-12-07T08:16:08;14.20;;;9.53;;
1799;SDS011;919;48.274;12.292;2022-12-07T08:18:35;13.20;;;9.30;;
1799;SDS011;919;48.274;12.292;2022-12-07T08:21:03;12.70;;;9.00;;
1799;SDS011;919;48.274;12.292;2022-12-07T08:23:31;12.80;;;8.70;;
1799;SDS011;919;48.274;12.292;2022-12-07T08:25:59;11.90;;;8.80;;
1799;SDS011;919;48.274;12.292;2022-12-07T08:28:27;13.40;;;8.63;;
1799;SDS011;919;48.274;12.292;2022-12-07T08:30:58;11.47;;;8.50;;
1799;SDS011;919;48.274;12.292;2022-12-07T08:33:27;10.57;;;8.77;;
1799;SDS011;919;48.274;12.292;2022-12-07T08:35:53;12.83;;;8.97;;
1799;SDS011;919;48.274;12.292;2022-12-07T08:38:20;14.10;;;9.07;;
1799;SDS011;919;48.274;12.292;2022-12-07T08:40:53;13.43;;;9.10;;
1799;SDS011;919;48.274;12.292;2022-12-07T08:43:20;15.03;;;9.30;;
1799;SDS011;919;48.274;12.292;2022-12-07T08:45:47;13.03;;;8.43;;
1799;SDS011;919;48.274;12.292;2022-12-07T08:48:18;12.33;;;8.57;;
1799;SDS011;919;48.274;12.292;2022-12-07T08:50:50;13.80;;;9.40;;
1799;SDS011;919;48.274;12.292;2022-12-07T08:53:17;10.03;;;8.30;;
1799;SDS011;919;48.274;12.292;2022-12-07T08:55:44;10.03;;;8.47;;
1799;SDS011;919;48.274;12.292;2022-12-07T08:58:12;13.27;;;9.07;;
1799;SDS011;919;48.274;12.292;2022-12-07T09:00:38;12.30;;;8.50;;
1799;SDS011;919;48.274;12.292;2022-12-07T09:03:05;11.73;;;8.57;;
1799;SDS011;919;48.274;12.292;2022-12-07T09:05:32;14.27;;;9.70;;
1799;SDS011;919;48.274;12.292;2022-12-07T09:08:01;12.80;;;8.90;;
1799;SDS011;919;48.274;12.292;2022-12-07T09:10:28;12.03;;;8.00;;
1799;SDS011;919;48.274;12.292;2022-12-07T09:12:55;10.63;;;8.77;;
1799;SDS011;919;48.274;12.292;2022-12-07T09:15:25;12.63;;;8.10;;
1799;SDS011;919;48.274;12.292;2022-12-07T09:17:52;13.37;;;9.00;;
1799;SDS011;919;48.274;12.292;2022-12-07T09:20:19;10.53;;;8.27;;
1799;SDS011;919;48.274;12.292;2022-12-07T09:22:46;9.43;;;8.07;;
1799;SDS011;919;48.274;12.292;2022-12-07T09:25:14;13.00;;;8.83;;
1799;SDS011;919;48.274;12.292;2022-12-07T09:27:41;12.17;;;9.03;;
1799;SDS011;919;48.274;12.292;2022-12-07T09:30:08;11.87;;;8.60;;
1799;SDS011;919;48.274;12.292;2022-12-07T09:32:35;11.33;;;8.57;;
1799;SDS011;919;48.274;12.292;2022-12-07T09:35:02;11.77;;;8.53;;
1799;SDS011;919;48.274;12.292;2022-12-07T09:37:29;11.00;;;7.50;;
1799;SDS011;919;48.274;12.292;2022-12-07T09:39:56;11.73;;;8.90;;
1799;SDS011;919;48.274;12.292;2022-12-07T09:42:27;11.63;;;8.70;;
1799;SDS011;919;48.274;12.292;2022-12-07T09:44:58;12.07;;;8.37;;
1799;SDS011;919;48.274;12.292;2022-12-07T09:47:25;14.10;;;9.27;;
1799;SDS011;919;48.274;12.292;2022-12-07T09:49:53;10.90;;;7.23;;
1799;SDS011;919;48.274;12.292;2022-12-07T09:52:26;12.10;;;7.73;;
1799;SDS011;919;48.274;12.292;2022-12-07T09:54:54;9.93;;;7.27;;
1799;SDS011;919;48.274;12.292;2022-12-07T09:57:24;12.40;;;8.70;;
1799;SDS011;919;48.274;12.292;2022-12-07T09:59:54;10.67;;;7.87;;
1799;SDS011;919;48.274;12.292;2022-12-07T10:02:24;12.40;;;9.27;;
1799;SDS011;919;48.274;12.292;2022-12-07T10:04:59;10.70;;;7.40;;
1799;SDS011;919;48.274;12.292;2022-12-07T10:07:26;8.53;;;7.10;;
1799;SDS011;919;48.274;12.292;2022-12-07T10:09:53;12.30;;;7.73;;
1799;SDS011;919;48.274;12.292;2022-12-07T10:12:20;11.97;;;7.70;;
1799;SDS011;919;48.274;12.292;2022-12-07T10:14:55;12.80;;;8.70;;
1799;SDS011;919;48.274;12.292;2022-12-07T10:17:31;9.10;;;6.43;;
1799;SDS011;919;48.274;12.292;2022-12-07T10:20:20;9.97;;;7.83;;
1799;SDS011;919;48.274;12.292;2022-12-07T10:22:53;9.30;;;7.27;;
1799;SDS011;919;48.274;12.292;2022-12-07T10:25:22;8.07;;;6.37;;
1799;SDS011;919;48.274;12.292;2022-12-07T10:27:57;10.97;;;7.80;;
1799;SDS011;919;48.274;12.292;2022-12-07T10:30:26;8.83;;;6.67;;
1799;SDS011;919;48.274;12.292;2022-12-07T10:32:52;9.40;;;6.90;;
1799;SDS011;919;48.274;12.292;2022-12-07T10:35:21;8.90;;;6.70;;
1799;SDS011;919;48.274;12.292;2022-12-07T10:37:50;9.83;;;5.97;;
1799;SDS011;919;48.274;12.292;2022-12-07T10:40:31;9.97;;;6.60;;
1799;SDS011;919;48.274;12.292;2022-12-07T10:43:10;8.53;;;6.53;;
1799;SDS011;919;48.274;12.292;2022-12-07T10:45:54;10.37;;;7.57;;
1799;SDS011;919;48.274;12.292;2022-12-07T10:48:40;12.63;;;7.23;;
1799;SDS011;919;48.274;12.292;2022-12-07T10:51:12;9.67;;;6.77;;
1799;SDS011;919;48.274;12.292;2022-12-07T10:53:51;12.30;;;7.17;;
1799;SDS011;919;48.274;12.292;2022-12-07T10:56:34;10.60;;;7.57;;
1799;SDS011;919;48.274;12.292;2022-12-07T10:59:21;8.00;;;6.03;;
1799;SDS011;919;48.274;12.292;2022-12-07T11:02:10;8.23;;;6.80;;
1799;SDS011;919;48.274;12.292;2022-12-07T11:04:49;8.87;;;6.53;;
1799;SDS011;919;48.274;12.292;2022-12-07T11:07:27;6.97;;;5.80;;
1799;SDS011;919;48.274;12.292;2022-12-07T11:10:05;8.93;;;6.80;;
1799;SDS011;919;48.274;12.292;2022-12-07T11:15:32;9.30;;;7.37;;
1799;SDS011;919;48.274;12.292;2022-12-07T11:18:21;11.70;;;7.97;;
1799;SDS011;919;48.274;12.292;2022-12-07T11:20:54;8.00;;;6.43;;
1799;SDS011;919;48.274;12.292;2022-12-07T11:23:30;8.97;;;6.80;;
1799;SDS011;919;48.274;12.292;2022-12-07T11:26:13;8.50;;;6.43;;
1799;SDS011;919;48.274;12.292;2022-12-07T11:28:55;8.87;;;6.20;;
1799;SDS011;919;48.274;12.292;2022-12-07T11:31:37;8.20;;;6.33;;
1799;SDS011;919;48.274;12.292;2022-12-07T11:34:15;9.00;;;6.63;;
1799;SDS011;919;48.274;12.292;2022-12-07T11:36:47;10.50;;;7.23;;
1799;SDS011;919;48.274;12.292;2022-12-07T11:39:20;10.53;;;6.80;;
1799;SDS011;919;48.274;12.292;2022-12-07T11:41:54;9.67;;;6.70;;
1799;SDS011;919;48.274;12.292;2022-12-07T11:44:27;8.57;;;6.20;;
1799;SDS011;919;48.274;12.292;2022-12-07T11:46:59;8.00;;;5.67;;
1799;SDS011;919;48.274;12.292;2022-12-07T11:49:37;8.13;;;5.40;;
1799;SDS011;919;48.274;12.292;2022-12-07T11:52:10;8.10;;;5.43;;
1799;SDS011;919;48.274;12.292;2022-12-07T11:54:44;7.17;;;5.93;;
1799;SDS011;919;48.274;12.292;2022-12-07T11:57:15;6.57;;;4.53;;
1799;SDS011;919;48.274;12.292;2022-12-07T11:59:47;7.63;;;5.33;;
1799;SDS011;919;48.274;12.292;2022-12-07T12:02:19;9.93;;;6.50;;
1799;SDS011;919;48.274;12.292;2022-12-07T12:04:53;9.07;;;6.10;;
1799;SDS011;919;48.274;12.292;2022-12-07T12:07:25;7.10;;;4.80;;
1799;SDS011;919;48.274;12.292;2022-12-07T12:09:54;8.67;;;6.07;;
1799;SDS011;919;48.274;12.292;2022-12-07T12:12:31;10.33;;;6.57;;
1799;SDS011;919;48.274;12.292;2022-12-07T12:15:17;9.10;;;6.53;;
1799;SDS011;919;48.274;12.292;2022-12-07T12:20:54;9.70;;;5.50;;
1799;SDS011;919;48.274;12.292;2022-12-07T12:23:26;6.50;;;4.90;;
1799;SDS011;919;48.274;12.292;2022-12-07T12:26:01;10.40;;;5.83;;
1799;SDS011;919;48.274;12.292;2022-12-07T12:28:38;8.93;;;5.57;;
1799;SDS011;919;48.274;12.292;2022-12-07T12:31:09;7.83;;;5.83;;
1799;SDS011;919;48.274;12.292;2022-12-07T12:33:41;7.93;;;6.17;;
1799;SDS011;919;48.274;12.292;2022-12-07T12:36:22;7.47;;;5.83;;
1799;SDS011;919;48.274;12.292;2022-12-07T12:38:51;9.17;;;5.70;;
1799;SDS011;919;48.274;12.292;2022-12-07T12:44:40;6.67;;;5.77;;
1799;SDS011;919;48.274;12.292;2022-12-07T12:47:41;6.97;;;4.80;;
1799;SDS011;919;48.274;12.292;2022-12-07T12:50:18;7.10;;;5.43;;
1799;SDS011;919;48.274;12.292;2022-12-07T12:52:52;8.10;;;6.73;;
1799;SDS011;919;48.274;12.292;2022-12-07T13:04:14;6.50;;;5.53;;
1799;SDS011;919;48.274;12.292;2022-12-07T13:06:47;9.33;;;6.40;;
1799;SDS011;919;48.274;12.292;2022-12-07T13:09:20;7.63;;;5.97;;
1799;SDS011;919;48.274;12.292;2022-12-07T13:11:50;6.90;;;5.47;;
1799;SDS011;919;48.274;12.292;2022-12-07T13:23:27;7.30;;;5.63;;
1799;SDS011;919;48.274;12.292;2022-12-07T13:26:01;7.90;;;5.70;;
1799;SDS011;919;48.274;12.292;2022-12-07T13:28:47;8.00;;;5.73;;
1799;SDS011;919;48.274;12.292;2022-12-07T13:31:32;9.43;;;6.00;;
1799;SDS011;919;48.274;12.292;2022-12-07T13:34:01;8.20;;;5.87;;
1799;SDS011;919;48.274;12.292;2022-12-07T13:36:29;8.73;;;6.63;;
1799;SDS011;919;48.274;12.292;2022-12-07T13:39:09;9.03;;;6.30;;
1799;SDS011;919;48.274;12.292;2022-12-07T13:41:44;8.73;;;6.80;;
1799;SDS011;919;48.274;12.292;2022-12-07T13:44:16;8.40;;;5.53;;
1799;SDS011;919;48.274;12.292;2022-12-07T13:46:45;8.40;;;6.10;;
1799;SDS011;919;48.274;12.292;2022-12-07T13:49:18;7.13;;;5.17;;
1799;SDS011;919;48.274;12.292;2022-12-07T13:51:47;6.43;;;5.07;;
1799;SDS011;919;48.274;12.292;2022-12-07T13:54:14;8.07;;;6.13;;
1799;SDS011;919;48.274;12.292;2022-12-07T13:56:42;8.53;;;6.37;;
1799;SDS011;919;48.274;12.292;2022-12-07T13:59:14;8.30;;;5.80;;
1799;SDS011;919;48.274;12.292;2022-12-07T14:01:42;9.40;;;6.53;;
1799;SDS011;919;48.274;12.292;2022-12-07T14:04:19;9.67;;;6.63;;
1799;SDS011;919;48.274;12.292;2022-12-07T14:06:55;7.23;;;5.70;;
1799;SDS011;919;48.274;12.292;2022-12-07T14:09:23;8.23;;;5.23;;
1799;SDS011;919;48.274;12.292;2022-12-07T14:11:53;7.03;;;5.17;;
1799;SDS011;919;48.274;12.292;2022-12-07T14:14:22;6.73;;;4.73;;
1799;SDS011;919;48.274;12.292;2022-12-07T14:16:57;6.80;;;5.57;;
1799;SDS011;919;48.274;12.292;2022-12-07T14:19:44;8.13;;;6.20;;
1799;SDS011;919;48.274;12.292;2022-12-07T14:22:20;6.87;;;5.23;;
1799;SDS011;919;48.274;12.292;2022-12-07T14:24:50;8.63;;;5.80;;
1799;SDS011;919;48.274;12.292;2022-12-07T14:27:19;5.20;;;4.67;;
1799;SDS011;919;48.274;12.292;2022-12-07T14:29:50;8.83;;;5.87;;
1799;SDS011;919;48.274;12.292;2022-12-07T14:32:18;8.07;;;5.90;;
1799;SDS011;919;48.274;12.292;2022-12-07T14:34:59;10.63;;;6.20;;
1799;SDS011;919;48.274;12.292;2022-12-07T14:37:28;6.30;;;5.43;;
1799;SDS011;919;48.274;12.292;2022-12-07T14:39:56;9.97;;;6.13;;
1799;SDS011;919;48.274;12.292;2022-12-07T14:42:26;6.80;;;5.00;;
1799;SDS011;919;48.274;12.292;2022-12-07T14:44:55;7.40;;;5.27;;
1799;SDS011;919;48.274;12.292;2022-12-07T14:47:22;7.73;;;6.10;;
1799;SDS011;919;48.274;12.292;2022-12-07T14:49:49;7.00;;;5.13;;
1799;SDS011;919;48.274;12.292;2022-12-07T14:52:16;10.07;;;5.90;;
1799;SDS011;919;48.274;12.292;2022-12-07T14:54:45;7.23;;;5.83;;
1799;SDS011;919;48.274;12.292;2022-12-07T14:57:12;6.60;;;5.00;;
1799;SDS011;919;48.274;12.292;2022-12-07T14:59:40;7.20;;;5.33;;
1799;SDS011;919;48.274;12.292;2022-12-07T15:02:09;8.70;;;5.80;;
1799;SDS011;919;48.274;12.292;2022-12-07T15:04:37;6.43;;;4.73;;
1799;SDS011;919;48.274;12.292;2022-12-07T15:07:04;8.30;;;5.57;;
1799;SDS011;919;48.274;12.292;2022-12-07T15:09:32;7.63;;;5.40;;
1799;SDS011;919;48.274;12.292;2022-12-07T15:11:59;5.57;;;4.63;;
1799;SDS011;919;48.274;12.292;2022-12-07T15:14:25;6.70;;;4.67;;
1799;SDS011;919;48.274;12.292;2022-12-07T15:16:53;6.93;;;5.20;;
1799;SDS011;919;48.274;12.292;2022-12-07T15:19:21;8.60;;;5.00;;
1799;SDS011;919;48.274;12.292;2022-12-07T15:21:51;7.70;;;5.00;;
1799;SDS011;919;48.274;12.292;2022-12-07T15:24:18;7.13;;;4.63;;
1799;SDS011;919;48.274;12.292;2022-12-07T15:26:45;6.37;;;4.50;;
1799;SDS011;919;48.274;12.292;2022-12-07T15:29:12;8.70;;;5.70;;
1799;SDS011;919;48.274;12.292;2022-12-07T15:31:39;7.27;;;5.90;;
1799;SDS011;919;48.274;12.292;2022-12-07T15:34:08;7.87;;;5.10;;
1799;SDS011;919;48.274;12.292;2022-12-07T15:36:35;6.73;;;5.10;;
1799;SDS011;919;48.274;12.292;2022-12-07T15:39:02;9.77;;;6.77;;
1799;SDS011;919;48.274;12.292;2022-12-07T15:41:29;9.10;;;6.43;;
1799;SDS011;919;48.274;12.292;2022-12-07T15:43:56;7.80;;;6.17;;
1799;SDS011;919;48.274;12.292;2022-12-07T15:46:40;9.70;;;6.50;;
1799;SDS011;919;48.274;12.292;2022-12-07T15:49:10;8.10;;;5.70;;
1799;SDS011;919;48.274;12.292;2022-12-07T15:51:39;7.43;;;5.23;;
1799;SDS011;919;48.274;12.292;2022-12-07T15:54:06;7.87;;;5.37;;
1799;SDS011;919;48.274;12.292;2022-12-07T15:56:33;8.07;;;5.20;;
1799;SDS011;919;48.274;12.292;2022-12-07T15:59:00;6.97;;;5.20;;
1799;SDS011;919;48.274;12.292;2022-12-07T16:01:26;7.40;;;5.37;;